Time;durP1;ratioP1;P1;durP2;ratioP2;P2;SDS_P1;SDS_P2;PMS_P1;PMS_P2;Temp;Humidity;BMP_temperature;BMP_pressure;BME280_temperature;BME280_humidity;BME280_pressure;Samples;Min_cycle;Max_cycle;Signal;HPM_P1;HPM_P2
2022/11/25 00:01:07;;;;;;;18.25;11.50;;;7.60;99.90;;;;;;4991609;28;20101;-74
2022/11/25 00:03:34;;;;;;;21.35;11.50;;;7.60;99.90;;;;;;4986977;28;20030;-73
2022/11/25 00:06:08;;;;;;;17.45;10.13;;;7.60;99.90;;;;;;4987434;28;20031;-72
2022/11/25 00:08:34;;;;;;;14.98;9.68;;;7.60;99.90;;;;;;4970512;28;20440;-73
2022/11/25 00:11:01;;;;;;;15.98;10.23;;;7.50;99.90;;;;;;4976555;28;20027;-71
2022/11/25 00:13:27;;;;;;;17.85;10.10;;;7.50;99.90;;;;;;4974061;28;20105;-71
2022/11/25 00:15:52;;;;;;;18.70;11.50;;;7.50;99.90;;;;;;4974429;28;20118;-73
2022/11/25 00:18:18;;;;;;;21.27;10.80;;;7.40;99.90;;;;;;4978255;28;20679;-71
2022/11/25 00:20:44;;;;;;;20.13;11.40;;;7.40;99.90;;;;;;4974062;28;20584;-72
2022/11/25 00:23:10;;;;;;;19.33;11.75;;;7.40;99.90;;;;;;4973495;28;20085;-71
2022/11/25 00:25:35;;;;;;;22.35;12.05;;;7.40;99.90;;;;;;4973828;28;20031;-77
2022/11/25 00:28:01;;;;;;;22.60;11.90;;;7.40;99.90;;;;;;4975550;28;20081;-76
2022/11/25 00:30:27;;;;;;;20.25;11.50;;;7.40;99.90;;;;;;4975091;28;20026;-75
2022/11/25 00:32:53;;;;;;;18.58;10.95;;;7.40;99.90;;;;;;4990454;28;20488;-76
2022/11/25 00:35:20;;;;;;;17.58;9.95;;;7.40;99.90;;;;;;4976581;28;20102;-77
2022/11/25 00:37:46;;;;;;;22.02;10.25;;;7.40;99.90;;;;;;4975847;28;20385;-77
2022/11/25 00:40:12;;;;;;;17.02;9.73;;;7.30;99.90;;;;;;4990915;28;20100;-73
2022/11/25 00:45:25;;;;;;;17.70;10.75;;;7.20;99.90;;;;;;4978879;28;20667;-75
2022/11/25 00:47:53;;;;;;;17.60;10.43;;;7.20;99.90;;;;;;4987615;28;20101;-71
2022/11/25 00:50:18;;;;;;;14.77;9.65;;;7.20;99.90;;;;;;4971591;28;20038;-71
2022/11/25 00:52:44;;;;;;;16.80;10.52;;;7.10;99.90;;;;;;4975197;28;20100;-71
2022/11/25 00:55:11;;;;;;;17.58;10.38;;;7.10;99.90;;;;;;4973479;28;20042;-75
2022/11/25 00:57:37;;;;;;;19.40;11.50;;;7.10;99.90;;;;;;4978463;28;20690;-71
2022/11/25 01:00:04;;;;;;;20.77;12.05;;;7.10;99.90;;;;;;4974865;28;20039;-72
2022/11/25 01:02:30;;;;;;;20.05;11.63;;;7.20;99.90;;;;;;4987533;28;20609;-72
2022/11/25 01:04:56;;;;;;;19.73;11.77;;;7.10;99.90;;;;;;4975133;28;20038;-74
2022/11/25 01:07:21;;;;;;;18.92;11.95;;;7.10;99.90;;;;;;4975527;28;20564;-72
2022/11/25 01:09:48;;;;;;;24.02;13.38;;;7.10;99.90;;;;;;4975869;28;20018;-74
2022/11/25 01:12:14;;;;;;;18.98;12.70;;;7.10;99.90;;;;;;4988173;28;20501;-72
2022/11/25 01:14:40;;;;;;;17.98;11.05;;;7.10;99.90;;;;;;4982247;28;20477;-74
2022/11/25 01:17:05;;;;;;;18.80;11.82;;;7.10;99.90;;;;;;4986834;28;20109;-78
2022/11/25 01:19:32;;;;;;;21.02;12.43;;;7.10;99.90;;;;;;4978507;28;20098;-77
2022/11/25 01:21:58;;;;;;;19.88;13.10;;;7.10;99.90;;;;;;4974513;28;20198;-77
2022/11/25 01:24:25;;;;;;;20.52;12.45;;;7.10;99.90;;;;;;4972872;28;20513;-77
2022/11/25 01:26:54;;;;;;;23.23;12.85;;;7.10;99.90;;;;;;4976258;28;20106;-77
2022/11/25 01:29:21;;;;;;;19.48;12.45;;;7.10;99.90;;;;;;4972781;28;20050;-77
2022/11/25 01:31:47;;;;;;;22.10;12.63;;;7.10;99.90;;;;;;4976149;28;20096;-73
2022/11/25 01:34:19;;;;;;;17.33;10.90;;;7.10;99.90;;;;;;4985941;28;20030;-76
2022/11/25 01:36:45;;;;;;;18.60;11.75;;;7.10;99.90;;;;;;4978679;28;20033;-72
2022/11/25 01:39:21;;;;;;;17.48;11.60;;;7.10;99.90;;;;;;4972502;28;20436;-73
2022/11/25 01:41:48;;;;;;;18.30;11.60;;;7.10;99.90;;;;;;4975862;28;20039;-73
2022/11/25 01:44:17;;;;;;;16.52;10.40;;;7.10;99.90;;;;;;4987948;28;20055;-74
2022/11/25 01:47:17;;;;;;;17.30;10.52;;;7.10;99.90;;;;;;4988908;28;20443;-71
2022/11/25 01:49:43;;;;;;;19.13;10.23;;;7.20;99.90;;;;;;4968380;28;20489;-73
2022/11/25 01:52:15;;;;;;;21.00;10.88;;;7.10;99.90;;;;;;4990174;28;20046;-73
2022/11/25 01:54:52;;;;;;;16.50;10.60;;;7.10;99.90;;;;;;4992979;28;20027;-72
2022/11/25 01:57:26;;;;;;;19.08;10.10;;;7.20;99.90;;;;;;4991643;28;20491;-71
2022/11/25 01:59:56;;;;;;;19.30;11.13;;;7.20;99.90;;;;;;4991336;28;20113;-76
2022/11/25 02:02:23;;;;;;;17.00;9.90;;;7.20;99.90;;;;;;4978274;28;20051;-72
2022/11/25 02:04:49;;;;;;;17.92;10.20;;;7.20;99.90;;;;;;4984355;28;20043;-72
2022/11/25 02:07:29;;;;;;;16.58;10.35;;;7.20;99.90;;;;;;4977679;28;20489;-71
2022/11/25 02:09:56;;;;;;;17.05;10.98;;;7.20;99.90;;;;;;4984523;28;20076;-72
2022/11/25 02:12:22;;;;;;;20.00;10.57;;;7.20;99.90;;;;;;4982022;28;20121;-73
2022/11/25 02:14:50;;;;;;;19.58;10.65;;;7.20;99.90;;;;;;4975651;28;20122;-72
2022/11/25 02:17:17;;;;;;;17.88;11.02;;;7.20;99.90;;;;;;4992761;28;20030;-72
2022/11/25 02:20:20;;;;;;;16.08;9.88;;;7.20;99.90;;;;;;4992908;28;20053;-73
2022/11/25 02:22:58;;;;;;;;;;;7.20;99.90;;;;;;4989336;28;20081;-73
2022/11/25 02:25:30;;;;;;;18.13;11.40;;;7.20;99.90;;;;;;4981399;28;20427;-73
2022/11/25 02:28:05;;;;;;;20.83;10.57;;;7.20;99.90;;;;;;4986329;28;20060;-72
2022/11/25 02:30:31;;;;;;;19.13;11.85;;;7.10;99.90;;;;;;4991683;28;20097;-72
2022/11/25 02:32:59;;;;;;;19.67;11.25;;;7.10;99.90;;;;;;4991176;28;20031;-73
2022/11/25 02:35:32;;;;;;;23.40;11.52;;;7.20;99.90;;;;;;4990145;28;20034;-73
2022/11/25 02:38:03;;;;;;;20.55;10.65;;;7.10;99.90;;;;;;4981919;28;20031;-73
2022/11/25 02:40:30;;;;;;;23.92;12.00;;;7.10;99.90;;;;;;4990018;28;20039;-77
2022/11/25 02:43:02;;;;;;;18.33;10.57;;;7.00;99.90;;;;;;4982763;28;20054;-72
2022/11/25 02:45:40;;;;;;;18.00;10.80;;;7.10;99.90;;;;;;4983516;28;20129;-73
2022/11/25 02:48:06;;;;;;;17.38;10.13;;;7.00;99.90;;;;;;4991745;28;20041;-76
2022/11/25 02:50:32;;;;;;;13.93;8.70;;;7.00;99.90;;;;;;4991141;28;20152;-74
2022/11/25 02:53:01;;;;;;;15.68;9.38;;;7.00;99.90;;;;;;4982504;28;20100;-73
2022/11/25 02:55:27;;;;;;;20.70;10.15;;;7.00;99.90;;;;;;4992060;28;20477;-75
2022/11/25 02:57:53;;;;;;;15.15;9.25;;;7.00;99.90;;;;;;4990714;28;20033;-72
2022/11/25 03:00:22;;;;;;;15.40;9.65;;;6.90;99.90;;;;;;4983074;28;20019;-72
2022/11/25 03:02:53;;;;;;;14.98;9.45;;;7.00;99.90;;;;;;4974464;28;20137;-72
2022/11/25 03:05:23;;;;;;;20.02;10.98;;;6.90;99.90;;;;;;4979310;28;20042;-72
2022/11/25 03:07:49;;;;;;;17.30;9.90;;;7.00;99.90;;;;;;4989684;28;20034;-71
2022/11/25 03:10:17;;;;;;;21.65;10.88;;;7.00;99.90;;;;;;4989669;28;20676;-72
2022/11/25 03:12:43;;;;;;;17.98;10.23;;;7.00;99.90;;;;;;4990227;28;20030;-73
2022/11/25 03:15:09;;;;;;;17.60;9.82;;;7.00;99.90;;;;;;4989499;28;20049;-73
2022/11/25 03:17:36;;;;;;;17.15;10.13;;;7.00;99.90;;;;;;4976410;28;20126;-71
2022/11/25 03:20:03;;;;;;;15.90;9.68;;;6.90;99.90;;;;;;4982173;28;20074;-73
2022/11/25 03:22:30;;;;;;;18.05;9.75;;;6.90;99.90;;;;;;4979764;28;20069;-72
2022/11/25 03:24:56;;;;;;;18.05;10.98;;;6.90;99.90;;;;;;4992104;28;20062;-71
2022/11/25 03:27:22;;;;;;;18.00;10.10;;;6.90;99.90;;;;;;4991672;28;20384;-72
2022/11/25 03:29:48;;;;;;;16.23;10.15;;;6.90;99.90;;;;;;4990350;28;20026;-71
2022/11/25 03:32:17;;;;;;;18.55;11.00;;;6.90;99.90;;;;;;4980219;28;20034;-72
2022/11/25 03:34:43;;;;;;;16.60;10.27;;;6.90;99.90;;;;;;5004637;28;20134;-72
2022/11/25 03:37:09;;;;;;;16.75;10.27;;;6.90;99.90;;;;;;4986291;28;20053;-72
2022/11/25 03:39:36;;;;;;;19.77;12.45;;;6.90;99.90;;;;;;4989591;28;20041;-72
2022/11/25 03:42:02;;;;;;;17.85;10.50;;;6.90;99.90;;;;;;4990790;28;20043;-72
2022/11/25 03:44:28;;;;;;;18.05;11.02;;;6.90;99.90;;;;;;4984771;28;20074;-72
2022/11/25 03:46:54;;;;;;;16.92;10.35;;;7.00;99.90;;;;;;4991430;28;20023;-74
2022/11/25 03:49:20;;;;;;;18.50;11.35;;;7.00;99.90;;;;;;4994216;28;20113;-72
2022/11/25 03:51:47;;;;;;;15.30;9.88;;;7.00;99.90;;;;;;4989146;28;20428;-72
2022/11/25 03:54:15;;;;;;;15.38;9.27;;;7.00;99.90;;;;;;4980955;28;20033;-72
2022/11/25 03:57:01;;;;;;;18.50;10.98;;;7.00;99.90;;;;;;4981869;28;20141;-72
2022/11/25 03:59:28;;;;;;;17.48;10.40;;;7.00;99.90;;;;;;4980942;28;20026;-73
2022/11/25 04:01:54;;;;;;;16.70;10.48;;;7.00;99.90;;;;;;4993127;28;20092;-75
2022/11/25 04:04:21;;;;;;;16.30;9.68;;;7.00;99.90;;;;;;4976458;28;20062;-71
2022/11/25 04:06:47;;;;;;;19.98;10.75;;;6.90;99.90;;;;;;4992799;28;20018;-71
2022/11/25 04:09:13;;;;;;;16.25;10.05;;;6.90;99.90;;;;;;4984785;28;20045;-73
2022/11/25 04:14:29;;;;;;;19.48;11.65;;;6.80;99.90;;;;;;5007525;28;20061;-75
2022/11/25 04:16:54;;;;;;;20.70;11.10;;;6.70;99.90;;;;;;4993348;28;20032;-71
2022/11/25 04:19:21;;;;;;;17.88;10.13;;;6.70;99.90;;;;;;4972526;28;20133;-72
2022/11/25 04:21:47;;;;;;;16.27;10.45;;;6.70;99.90;;;;;;4992272;28;20488;-72
2022/11/25 04:24:13;;;;;;;17.63;10.23;;;6.60;99.90;;;;;;4987467;28;20046;-71
2022/11/25 04:26:39;;;;;;;17.73;10.05;;;6.60;99.90;;;;;;4991338;28;20065;-70
2022/11/25 04:29:05;;;;;;;22.92;13.40;;;6.50;99.90;;;;;;4989886;28;20058;-73
2022/11/25 04:31:32;;;;;;;26.10;15.00;;;6.50;99.90;;;;;;4988604;28;20109;-70
2022/11/25 04:33:58;;;;;;;21.67;12.98;;;6.50;99.90;;;;;;4976125;28;20023;-70
2022/11/25 04:36:26;;;;;;;19.27;12.32;;;6.40;99.90;;;;;;4982422;28;20054;-73
2022/11/25 04:38:53;;;;;;;18.92;12.13;;;6.40;99.90;;;;;;4992654;28;20113;-70
2022/11/25 04:41:21;;;;;;;19.50;11.73;;;6.30;99.90;;;;;;4988794;28;20030;-73
2022/11/25 04:43:47;;;;;;;17.02;10.95;;;6.30;99.90;;;;;;4980254;28;20117;-71
2022/11/25 04:46:18;;;;;;;20.20;11.98;;;6.30;99.90;;;;;;4991776;28;20058;-71
2022/11/25 04:48:49;;;;;;;23.50;13.50;;;6.30;99.90;;;;;;4992388;28;20093;-70
2022/11/25 04:51:16;;;;;;;20.30;12.18;;;6.20;99.90;;;;;;4987475;28;20050;-71
2022/11/25 04:53:44;;;;;;;21.75;13.00;;;6.20;99.90;;;;;;4990317;28;20494;-70
2022/11/25 04:56:17;;;;;;;26.60;13.80;;;6.20;99.90;;;;;;4981022;28;20026;-70
2022/11/25 05:01:29;;;;;;;29.13;14.57;;;6.20;99.90;;;;;;4990673;28;20524;-76
2022/11/25 05:04:03;;;;;;;24.73;14.80;;;6.10;99.90;;;;;;4992250;28;20085;-70
2022/11/25 05:06:29;;;;;;;22.58;13.85;;;6.10;99.90;;;;;;4989769;28;20034;-71
2022/11/25 05:08:55;;;;;;;22.17;13.10;;;6.10;99.90;;;;;;4991602;28;20562;-70
2022/11/25 05:11:24;;;;;;;25.10;15.35;;;6.10;99.90;;;;;;4990045;28;20428;-70
2022/11/25 05:13:52;;;;;;;26.55;15.68;;;6.00;99.90;;;;;;4989070;28;20121;-71
2022/11/25 05:16:18;;;;;;;24.50;16.20;;;6.00;99.90;;;;;;4988895;28;20035;-70
2022/11/25 05:18:44;;;;;;;24.90;14.68;;;6.00;99.90;;;;;;4991948;28;20322;-71
2022/11/25 05:21:10;;;;;;;23.35;14.82;;;6.00;99.90;;;;;;4991497;28;20069;-72
2022/11/25 05:23:40;;;;;;;22.35;13.98;;;6.00;99.90;;;;;;4987215;28;20026;-74
2022/11/25 05:26:06;;;;;;;22.80;13.90;;;6.00;99.90;;;;;;4983413;28;20080;-70
2022/11/25 05:28:38;;;;;;;;;;;6.00;99.90;;;;;;4978787;28;20027;-71
2022/11/25 05:31:04;;;;;;;20.67;11.82;;;5.90;99.90;;;;;;4985788;28;19910;-72
2022/11/25 05:33:31;;;;;;;22.83;13.32;;;5.90;99.90;;;;;;5001415;28;20373;-72
2022/11/25 05:35:59;;;;;;;21.85;14.40;;;5.90;99.90;;;;;;4976941;28;20097;-72
2022/11/25 05:38:30;;;;;;;31.52;18.70;;;5.90;99.90;;;;;;5004090;28;20026;-71
2022/11/25 05:41:02;;;;;;;42.22;22.42;;;5.90;99.90;;;;;;4983526;28;20711;-71
2022/11/25 05:43:29;;;;;;;38.42;21.55;;;5.90;99.90;;;;;;5003633;28;20089;-72
2022/11/25 05:45:55;;;;;;;39.70;18.60;;;5.90;99.90;;;;;;4992981;28;20421;-71
2022/11/25 05:48:22;;;;;;;33.60;17.67;;;5.90;99.90;;;;;;4978519;28;20035;-72
2022/11/25 05:50:47;;;;;;;33.70;17.60;;;5.90;99.90;;;;;;4990480;28;20026;-72
2022/11/25 05:53:19;;;;;;;31.23;15.82;;;5.90;99.90;;;;;;4979319;28;20125;-71
2022/11/25 05:55:55;;;;;;;32.08;15.95;;;5.90;99.90;;;;;;4990171;28;20113;-72
2022/11/25 05:58:33;;;;;;;24.90;13.98;;;5.90;99.90;;;;;;4978036;28;20030;-71
2022/11/25 06:01:04;;;;;;;22.67;13.20;;;5.90;99.90;;;;;;4990971;28;20065;-71
2022/11/25 06:03:30;;;;;;;24.15;13.88;;;5.90;99.90;;;;;;4991488;28;20833;-71
2022/11/25 06:05:57;;;;;;;22.77;14.02;;;6.00;99.90;;;;;;4990570;28;20041;-73
2022/11/25 06:08:24;;;;;;;20.98;14.07;;;6.00;99.90;;;;;;4991528;28;20052;-71
2022/11/25 06:10:50;;;;;;;21.55;13.27;;;6.10;99.90;;;;;;4991019;28;20085;-71
2022/11/25 06:13:17;;;;;;;23.05;14.20;;;6.20;99.90;;;;;;4988282;28;20029;-71
2022/11/25 06:15:44;;;;;;;20.58;12.15;;;6.20;99.90;;;;;;4972727;28;20030;-72
2022/11/25 06:18:15;;;;;;;22.05;12.27;;;6.30;99.90;;;;;;4990750;28;20373;-72
2022/11/25 06:20:42;;;;;;;23.38;15.45;;;6.30;99.90;;;;;;4983180;28;20019;-73
2022/11/25 06:23:09;;;;;;;26.45;17.80;;;6.30;99.90;;;;;;4992119;28;20038;-72
2022/11/25 06:25:36;;;;;;;31.52;20.23;;;6.50;99.90;;;;;;4991275;28;20061;-71
2022/11/25 06:28:03;;;;;;;24.85;15.98;;;6.50;99.90;;;;;;4991063;28;20113;-71
2022/11/25 06:30:29;;;;;;;23.25;14.30;;;6.60;99.90;;;;;;4991307;28;20489;-73
2022/11/25 06:33:18;;;;;;;21.65;13.68;;;6.60;99.90;;;;;;4969765;28;20034;-72
2022/11/25 06:35:46;;;;;;;27.52;17.45;;;6.80;99.90;;;;;;4953482;28;20038;-71
2022/11/25 06:38:12;;;;;;;35.25;19.40;;;6.80;99.90;;;;;;4970079;28;20045;-73
2022/11/25 06:40:40;;;;;;;28.23;17.35;;;6.90;99.90;;;;;;4970539;28;20030;-72
2022/11/25 06:43:07;;;;;;;25.15;15.15;;;6.90;99.90;;;;;;4970600;28;20066;-72
2022/11/25 06:45:32;;;;;;;24.80;16.02;;;6.90;99.90;;;;;;4968560;28;20142;-71
2022/11/25 06:47:58;;;;;;;25.95;16.35;;;6.90;99.90;;;;;;4970319;28;20126;-72
2022/11/25 06:50:24;;;;;;;29.45;17.63;;;7.00;99.90;;;;;;4970027;28;20067;-73
2022/11/25 06:52:50;;;;;;;27.52;15.10;;;7.00;99.90;;;;;;4969482;28;20029;-76
2022/11/25 06:55:16;;;;;;;33.97;21.50;;;7.10;99.90;;;;;;4953212;28;20126;-72
2022/11/25 06:57:42;;;;;;;34.63;22.35;;;7.10;99.90;;;;;;4969904;28;20039;-72
2022/11/25 07:00:08;;;;;;;41.80;25.88;;;7.20;99.90;;;;;;4969949;28;20486;-72
2022/11/25 07:02:34;;;;;;;41.42;24.40;;;7.30;99.90;;;;;;4969845;28;20548;-72
2022/11/25 07:04:59;;;;;;;30.70;18.70;;;7.30;99.90;;;;;;4970000;28;20121;-71
2022/11/25 07:07:25;;;;;;;28.95;19.02;;;7.40;99.90;;;;;;4969442;28;20034;-71
2022/11/25 07:09:51;;;;;;;34.53;21.98;;;7.40;99.90;;;;;;4976892;28;20042;-71
2022/11/25 07:12:17;;;;;;;43.60;26.83;;;7.30;99.90;;;;;;4990280;28;20027;-71
2022/11/25 07:14:43;;;;;;;41.00;24.17;;;7.40;99.90;;;;;;4984425;28;20019;-70
2022/11/25 07:17:08;;;;;;;34.75;21.55;;;7.40;99.90;;;;;;4985409;28;20030;-70
2022/11/25 07:19:34;;;;;;;39.17;23.77;;;7.50;99.90;;;;;;4995674;28;20129;-74
2022/11/25 07:22:01;;;;;;;33.42;20.67;;;7.60;99.90;;;;;;4983757;28;20045;-70
2022/11/25 07:24:26;;;;;;;28.98;17.05;;;7.60;99.90;;;;;;4992207;28;20037;-71
2022/11/25 07:26:52;;;;;;;23.95;15.35;;;7.60;99.90;;;;;;4995308;28;20022;-74
2022/11/25 07:29:19;;;;;;;28.08;16.20;;;7.60;99.90;;;;;;4993822;28;20025;-72
2022/11/25 07:31:45;;;;;;;27.85;18.58;;;7.60;99.90;;;;;;4995647;28;20019;-71
2022/11/25 07:34:12;;;;;;;27.65;17.75;;;7.70;99.90;;;;;;4995686;28;20026;-71
2022/11/25 07:36:39;;;;;;;23.70;16.20;;;7.70;99.90;;;;;;4976923;28;20109;-71
2022/11/25 07:39:08;;;;;;;18.05;12.07;;;7.70;99.90;;;;;;4992028;28;20023;-73
2022/11/25 07:41:34;;;;;;;20.13;11.85;;;7.70;99.90;;;;;;4988281;28;20038;-71
2022/11/25 07:44:02;;;;;;;21.85;13.05;;;7.70;99.90;;;;;;4995440;28;20401;-71
2022/11/25 07:46:33;;;;;;;22.52;14.18;;;7.80;99.90;;;;;;4994469;28;20042;-71
2022/11/25 07:49:03;;;;;;;27.02;14.90;;;7.80;99.90;;;;;;4995048;28;20030;-71
2022/11/25 07:51:30;;;;;;;23.75;14.95;;;7.80;99.90;;;;;;4995874;28;20433;-71
2022/11/25 07:53:57;;;;;;;29.42;15.63;;;7.80;99.90;;;;;;4994491;28;20092;-71
2022/11/25 07:56:23;;;;;;;26.85;16.65;;;7.80;99.90;;;;;;4995418;28;20040;-71
2022/11/25 07:58:49;;;;;;;25.42;16.00;;;7.90;99.90;;;;;;4994811;28;20458;-73
2022/11/25 08:01:17;;;;;;;33.25;17.65;;;7.90;99.90;;;;;;4995012;28;20030;-71
2022/11/25 08:03:44;;;;;;;32.60;18.92;;;7.90;99.90;;;;;;4994869;28;20023;-71
2022/11/25 08:06:13;;;;;;;27.30;16.65;;;8.00;99.90;;;;;;4994898;28;20038;-73
2022/11/25 08:08:40;;;;;;;27.92;16.75;;;8.10;99.90;;;;;;4986327;28;20014;-73
2022/11/25 08:11:12;;;;;;;25.83;15.35;;;8.30;99.90;;;;;;4992356;28;20176;-73
2022/11/25 08:13:38;;;;;;;25.15;15.70;;;8.40;99.90;;;;;;4994073;28;20026;-74
2022/11/25 08:16:05;;;;;;;26.25;16.60;;;8.40;99.90;;;;;;4993244;28;20121;-73
2022/11/25 08:18:31;;;;;;;26.40;16.90;;;8.50;99.90;;;;;;4994079;28;20045;-73
2022/11/25 08:21:05;;;;;;;27.27;17.52;;;8.70;99.90;;;;;;4994352;28;20037;-74
2022/11/25 08:23:32;;;;;;;26.80;16.70;;;8.70;99.90;;;;;;4994489;28;20056;-74
2022/11/25 08:26:07;;;;;;;28.70;15.35;;;8.70;99.90;;;;;;4993594;28;20061;-71
2022/11/25 08:28:33;;;;;;;25.17;15.57;;;8.80;99.90;;;;;;4982374;28;20030;-73
2022/11/25 08:31:10;;;;;;;20.25;12.27;;;8.80;99.90;;;;;;4994779;28;20487;-73
2022/11/25 08:33:36;;;;;;;23.55;13.55;;;8.80;99.90;;;;;;4989507;28;20062;-71
2022/11/25 08:36:04;;;;;;;23.23;13.13;;;8.90;99.90;;;;;;4994551;28;20477;-73
2022/11/25 08:38:30;;;;;;;26.38;12.75;;;9.00;99.90;;;;;;4991799;28;20022;-72
2022/11/25 08:40:56;;;;;;;22.75;12.85;;;8.90;99.90;;;;;;4986502;28;20034;-72
2022/11/25 08:43:22;;;;;;;20.50;13.13;;;8.90;99.90;;;;;;4994352;28;20030;-72
2022/11/25 08:45:48;;;;;;;18.25;11.10;;;8.90;99.90;;;;;;4987764;28;20181;-72
2022/11/25 08:48:17;;;;;;;25.08;15.20;;;8.90;99.90;;;;;;4990291;28;20041;-72
2022/11/25 08:50:53;;;;;;;29.08;15.25;;;8.90;99.90;;;;;;4993476;28;20023;-72
2022/11/25 08:53:21;;;;;;;22.67;13.02;;;8.90;99.90;;;;;;4994154;28;20026;-73
2022/11/25 08:55:48;;;;;;;21.17;13.15;;;8.90;99.90;;;;;;4994535;28;20022;-73
2022/11/25 08:58:14;;;;;;;19.90;12.95;;;9.00;99.90;;;;;;4992593;28;20026;-72
2022/11/25 09:00:41;;;;;;;20.40;12.30;;;9.00;99.90;;;;;;4980498;28;20026;-72
2022/11/25 09:03:08;;;;;;;20.50;12.23;;;9.00;99.90;;;;;;4982982;28;20038;-72
2022/11/25 09:05:37;;;;;;;19.55;11.65;;;9.10;99.90;;;;;;4989928;28;20469;-73
2022/11/25 09:08:05;;;;;;;20.75;11.38;;;9.20;99.90;;;;;;4991504;28;20082;-73
2022/11/25 09:10:33;;;;;;;18.63;11.18;;;9.30;99.90;;;;;;4994441;28;20042;-73
2022/11/25 09:12:59;;;;;;;19.15;11.43;;;9.40;99.90;;;;;;4994207;28;20031;-73
2022/11/25 09:15:25;;;;;;;20.70;11.05;;;9.60;99.90;;;;;;4994101;28;20038;-73
2022/11/25 09:18:06;;;;;;;18.75;11.05;;;9.80;99.90;;;;;;4994189;28;20113;-72
2022/11/25 09:20:33;;;;;;;18.25;9.93;;;10.00;99.90;;;;;;4992275;28;20038;-72
2022/11/25 09:23:00;;;;;;;21.60;11.23;;;10.10;99.90;;;;;;4993725;28;20070;-72
2022/11/25 09:25:26;;;;;;;20.25;10.15;;;10.30;99.90;;;;;;4993303;28;20065;-72
2022/11/25 09:27:52;;;;;;;15.60;10.18;;;10.20;99.90;;;;;;4993780;28;20046;-72
2022/11/25 09:30:18;;;;;;;16.17;10.00;;;10.30;99.90;;;;;;4993537;28;20027;-72
2022/11/25 09:32:48;;;;;;;16.88;9.63;;;10.30;99.90;;;;;;4993311;28;20029;-72
2022/11/25 09:35:13;;;;;;;16.85;10.00;;;10.30;99.90;;;;;;4989941;28;20026;-73
2022/11/25 09:37:39;;;;;;;15.07;9.35;;;10.40;99.90;;;;;;4992660;28;20026;-72
2022/11/25 09:40:18;;;;;;;16.23;9.02;;;10.60;99.90;;;;;;4992615;28;20030;-72
2022/11/25 09:46:44;;;;;;;20.73;10.90;;;10.70;99.90;;;;;;4932661;29;20209;-72
2022/11/25 09:49:37;;;;;;;17.05;9.93;;;10.60;99.90;;;;;;4933060;29;20035;-72
2022/11/25 09:52:15;;;;;;;18.30;10.25;;;10.60;99.90;;;;;;4933326;29;20119;-72
2022/11/25 09:54:52;;;;;;;16.95;8.75;;;10.60;99.90;;;;;;4932075;29;20114;-72
2022/11/25 09:57:28;;;;;;;14.30;8.85;;;10.60;99.90;;;;;;4929523;29;20048;-72
2022/11/25 10:00:11;;;;;;;16.00;8.88;;;10.70;99.90;;;;;;4924071;29;20408;-72
2022/11/25 10:02:59;;;;;;;12.15;7.18;;;10.80;99.90;;;;;;4931947;29;20047;-73
2022/11/25 10:05:35;;;;;;;17.30;9.38;;;10.70;99.90;;;;;;4932977;29;20123;-72
2022/11/25 10:08:16;;;;;;;12.38;5.90;;;10.80;99.90;;;;;;4932945;29;20036;-73
2022/11/25 10:10:43;;;;;;;10.40;6.25;;;10.90;99.90;;;;;;4932846;29;20462;-72
2022/11/25 10:13:47;;;;;;;9.38;5.50;;;10.90;99.90;;;;;;4932875;29;20051;-72
2022/11/25 10:16:46;;;;;;;11.45;5.55;;;10.90;99.90;;;;;;4926943;29;20407;-72
2022/11/25 10:19:39;;;;;;;12.98;6.43;;;11.00;99.90;;;;;;4950605;28;20039;-72
2022/11/25 10:22:36;;;;;;;12.77;6.07;;;11.00;99.90;;;;;;4951649;29;20078;-73
2022/11/25 10:25:16;;;;;;;11.55;6.90;;;10.90;99.90;;;;;;4913511;29;20413;-73
2022/11/25 10:27:56;;;;;;;13.18;7.10;;;10.90;99.90;;;;;;4913388;29;20032;-72
2022/11/25 10:30:26;;;;;;;13.68;7.10;;;10.80;99.90;;;;;;4913278;29;20087;-73
2022/11/25 10:33:03;;;;;;;12.45;7.28;;;10.90;99.90;;;;;;4912483;29;20172;-72
2022/11/25 10:35:44;;;;;;;13.35;8.00;;;11.00;99.90;;;;;;4912424;29;20036;-73
2022/11/25 10:38:22;;;;;;;17.30;8.05;;;11.10;99.90;;;;;;4913199;29;20032;-72
2022/11/25 10:40:51;;;;;;;13.60;7.78;;;11.10;99.90;;;;;;4913570;29;20035;-72
2022/11/25 10:43:17;;;;;;;11.98;7.22;;;11.40;99.90;;;;;;4913308;29;20039;-72
2022/11/25 10:45:57;;;;;;;13.02;7.90;;;11.60;99.90;;;;;;4912959;29;20051;-77
2022/11/25 10:48:59;;;;;;;10.93;6.80;;;11.80;99.90;;;;;;4913083;29;20127;-73
2022/11/25 10:51:44;;;;;;;12.98;7.43;;;11.80;99.90;;;;;;4910408;29;20361;-72
2022/11/25 10:54:28;;;;;;;12.27;5.97;;;11.70;99.90;;;;;;4950688;28;20537;-72
2022/11/25 10:56:58;;;;;;;12.30;6.05;;;11.80;99.90;;;;;;4950598;28;20073;-73
2022/11/25 10:59:30;;;;;;;12.70;6.20;;;11.70;99.90;;;;;;4949361;28;20027;-73
2022/11/25 11:02:18;;;;;;;10.68;6.00;;;11.50;99.90;;;;;;4969211;28;20303;-72
2022/11/25 11:05:07;;;;;;;8.35;5.00;;;11.50;99.90;;;;;;4981095;28;20034;-72
2022/11/25 11:07:43;;;;;;;9.60;4.97;;;11.50;99.90;;;;;;4992116;28;20018;-77
2022/11/25 11:10:23;;;;;;;9.20;4.68;;;11.60;99.90;;;;;;4992211;28;20030;-73
2022/11/25 11:12:56;;;;;;;11.65;5.85;;;11.50;99.90;;;;;;4991359;28;20030;-72
2022/11/25 11:15:26;;;;;;;30.63;15.80;;;11.50;99.90;;;;;;4991927;28;20027;-72
2022/11/25 11:17:54;;;;;;;7.85;4.88;;;11.40;99.90;;;;;;4991260;28;20030;-75
2022/11/25 11:20:26;;;;;;;15.75;8.68;;;11.40;99.90;;;;;;4992076;28;20056;-73
2022/11/25 11:23:03;;;;;;;16.20;8.70;;;11.30;99.90;;;;;;4992138;28;20030;-73
2022/11/25 11:25:34;;;;;;;12.88;7.18;;;11.30;99.90;;;;;;4982479;28;20039;-72
2022/11/25 11:28:21;;;;;;;14.30;5.93;;;11.40;99.90;;;;;;4984417;28;20038;-72
2022/11/25 11:31:16;;;;;;;10.05;5.47;;;11.30;99.90;;;;;;4992057;28;20035;-72
2022/11/25 11:34:18;;;;;;;10.40;5.78;;;11.20;99.90;;;;;;4990430;28;20034;-73
2022/11/25 11:36:44;;;;;;;16.90;7.68;;;11.10;99.90;;;;;;4991940;28;20022;-73
2022/11/25 11:39:29;;;;;;;19.55;10.35;;;11.00;99.90;;;;;;4991798;28;20354;-72
2022/11/25 11:42:06;;;;;;;23.65;10.65;;;10.90;99.90;;;;;;4991694;28;20031;-72
2022/11/25 11:45:11;;;;;;;94.32;49.13;;;10.80;99.90;;;;;;4984301;28;20050;-72
2022/11/25 11:48:03;;;;;;;41.35;21.05;;;10.70;99.90;;;;;;4950646;29;20526;-73
2022/11/25 11:50:40;;;;;;;50.35;29.90;;;10.80;99.90;;;;;;4950474;29;20032;-72
2022/11/25 11:53:10;;;;;;;18.27;9.63;;;10.80;99.90;;;;;;4950255;29;20043;-73
2022/11/25 11:55:42;;;;;;;17.63;9.35;;;10.80;99.90;;;;;;4950796;29;20046;-72
2022/11/25 11:58:20;;;;;;;12.77;6.22;;;10.90;99.90;;;;;;4950412;29;20046;-73
2022/11/25 12:01:12;;;;;;;12.02;6.90;;;10.90;99.90;;;;;;4948058;29;20122;-73
2022/11/25 12:03:54;;;;;;;11.10;5.37;;;11.10;99.90;;;;;;4952096;28;20043;-73
2022/11/25 12:06:21;;;;;;;12.55;5.60;;;11.20;99.90;;;;;;4942082;29;20083;-72
2022/11/25 12:08:58;;;;;;;11.48;5.53;;;11.20;99.90;;;;;;4954023;29;20123;-73
2022/11/25 12:11:31;;;;;;;10.93;5.68;;;11.30;99.90;;;;;;4953656;28;20075;-72
2022/11/25 12:13:59;;;;;;;;;;;11.40;99.90;;;;;;4953728;29;20651;-73
2022/11/25 12:16:32;;;;;;;9.63;5.00;;;11.40;99.90;;;;;;4953212;29;19910;-71
2022/11/25 12:19:05;;;;;;;9.73;5.03;;;11.40;99.90;;;;;;4957142;28;20050;-72
2022/11/25 12:21:48;;;;;;;8.65;4.72;;;11.50;99.90;;;;;;4936448;29;20086;-71
2022/11/25 12:24:32;;;;;;;11.30;5.55;;;11.50;99.90;;;;;;4961344;28;20126;-72
2022/11/25 12:27:19;;;;;;;8.57;4.47;;;11.50;99.90;;;;;;4974403;28;20497;-72
2022/11/25 12:29:56;;;;;;;10.80;5.63;;;11.60;99.90;;;;;;4989811;28;20022;-72
2022/11/25 12:32:28;;;;;;;7.05;3.95;;;11.50;99.90;;;;;;4983513;28;20029;-72
2022/11/25 12:35:09;;;;;;;8.50;4.35;;;11.60;99.90;;;;;;4982208;28;20034;-72
2022/11/25 12:38:16;;;;;;;9.38;4.65;;;11.60;99.90;;;;;;4976637;28;20117;-72
2022/11/25 12:41:07;;;;;;;6.85;3.78;;;11.60;99.90;;;;;;4913887;29;20439;-71
2022/11/25 12:44:03;;;;;;;7.03;4.40;;;11.70;99.90;;;;;;4911509;29;20051;-72
2022/11/25 12:46:29;;;;;;;10.10;5.07;;;11.70;99.90;;;;;;4905773;29;20050;-72
2022/11/25 12:48:57;;;;;;;6.05;3.88;;;11.70;99.90;;;;;;4913717;29;20020;-71
2022/11/25 12:51:34;;;;;;;12.52;4.45;;;11.70;99.90;;;;;;4913021;28;20051;-73
2022/11/25 12:54:10;;;;;;;9.93;3.42;;;11.60;99.90;;;;;;4912777;29;20032;-74
2022/11/25 12:57:07;;;;;;;7.63;3.60;;;11.70;99.90;;;;;;4912709;29;20023;-73
2022/11/25 12:59:58;;;;;;;7.25;4.22;;;11.70;99.90;;;;;;4909410;29;20421;-71
2022/11/25 13:02:42;;;;;;;7.82;3.78;;;11.70;99.90;;;;;;4898543;29;20148;-71
2022/11/25 13:05:45;;;;;;;5.75;3.58;;;11.60;99.90;;;;;;4912735;29;20632;-72
2022/11/25 13:08:40;;;;;;;7.93;4.50;;;11.60;99.90;;;;;;4880885;29;20041;-72
2022/11/25 13:11:47;;;;;;;10.77;4.53;;;11.50;99.90;;;;;;4913015;29;20115;-73